sensor_id;sensor_type;location;lat;lon;timestamp;temperature;humidity
1948;DHT22;974;52.400;9.818;2023-03-29T00:00:21;6.60;99.90
1948;DHT22;974;52.400;9.818;2023-03-29T00:02:48;6.60;99.90
1948;DHT22;974;52.400;9.818;2023-03-29T00:05:18;6.60;99.90
1948;DHT22;974;52.400;9.818;2023-03-29T00:07:47;6.60;99.90
1948;DHT22;974;52.400;9.818;2023-03-29T00:10:18;6.60;99.90
1948;DHT22;974;52.400;9.818;2023-03-29T00:12:45;6.60;99.90
1948;DHT22;974;52.400;9.818;2023-03-29T00:15:11;6.70;99.90
1948;DHT22;974;52.400;9.818;2023-03-29T00:17:36;6.60;99.90
1948;DHT22;974;52.400;9.818;2023-03-29T00:20:02;6.60;99.80
1948;DHT22;974;52.400;9.818;2023-03-29T00:22:31;6.60;99.90
1948;DHT22;974;52.400;9.818;2023-03-29T00:24:56;6.50;99.90
1948;DHT22;974;52.400;9.818;2023-03-29T00:27:22;6.60;99.90
1948;DHT22;974;52.400;9.818;2023-03-29T00:29:47;6.60;99.90
1948;DHT22;974;52.400;9.818;2023-03-29T00:32:13;6.50;99.90
1948;DHT22;974;52.400;9.818;2023-03-29T00:34:39;6.60;99.90
1948;DHT22;974;52.400;9.818;2023-03-29T00:37:07;6.50;99.90
1948;DHT22;974;52.400;9.818;2023-03-29T00:39:33;6.50;99.90
1948;DHT22;974;52.400;9.818;2023-03-29T00:41:59;6.50;99.90
1948;DHT22;974;52.400;9.818;2023-03-29T00:47:47;6.40;99.90
1948;DHT22;974;52.400;9.818;2023-03-29T00:50:31;6.30;99.90
1948;DHT22;974;52.400;9.818;2023-03-29T00:53:02;6.40;99.90
1948;DHT22;974;52.400;9.818;2023-03-29T00:55:33;6.50;99.90
1948;DHT22;974;52.400;9.818;2023-03-29T00:58:03;6.40;99.90
1948;DHT22;974;52.400;9.818;2023-03-29T01:00:36;6.40;99.90
1948;DHT22;974;52.400;9.818;2023-03-29T01:03:06;6.40;99.90
1948;DHT22;974;52.400;9.818;2023-03-29T01:05:40;6.40;99.90
1948;DHT22;974;52.400;9.818;2023-03-29T01:08:16;6.40;99.90
1948;DHT22;974;52.400;9.818;2023-03-29T01:13:21;6.50;99.90
1948;DHT22;974;52.400;9.818;2023-03-29T01:15:50;6.40;99.90
1948;DHT22;974;52.400;9.818;2023-03-29T01:18:17;6.50;99.90
1948;DHT22;974;52.400;9.818;2023-03-29T01:20:57;6.40;99.90
1948;DHT22;974;52.400;9.818;2023-03-29T01:23:53;6.30;99.90
1948;DHT22;974;52.400;9.818;2023-03-29T01:26:34;6.20;99.90
1948;DHT22;974;52.400;9.818;2023-03-29T01:29:06;6.20;99.90
1948;DHT22;974;52.400;9.818;2023-03-29T01:31:38;6.20;99.90
1948;DHT22;974;52.400;9.818;2023-03-29T01:34:14;6.30;99.90
1948;DHT22;974;52.400;9.818;2023-03-29T01:36:48;6.20;99.90
1948;DHT22;974;52.400;9.818;2023-03-29T01:39:14;6.20;99.90
1948;DHT22;974;52.400;9.818;2023-03-29T01:41:45;6.30;99.90
1948;DHT22;974;52.400;9.818;2023-03-29T01:44:46;6.30;99.90
1948;DHT22;974;52.400;9.818;2023-03-29T01:47:28;6.30;99.90
1948;DHT22;974;52.400;9.818;2023-03-29T01:50:08;6.30;99.90
1948;DHT22;974;52.400;9.818;2023-03-29T01:52:47;6.40;99.90
1948;DHT22;974;52.400;9.818;2023-03-29T01:55:19;6.40;99.90
1948;DHT22;974;52.400;9.818;2023-03-29T01:57:47;6.40;99.90
1948;DHT22;974;52.400;9.818;2023-03-29T02:00:16;6.40;99.90
1948;DHT22;974;52.400;9.818;2023-03-29T02:02:44;6.40;99.90
1948;DHT22;974;52.400;9.818;2023-03-29T02:05:11;6.30;99.90
1948;DHT22;974;52.400;9.818;2023-03-29T02:07:39;6.20;99.90
1948;DHT22;974;52.400;9.818;2023-03-29T02:10:07;6.30;99.90
1948;DHT22;974;52.400;9.818;2023-03-29T02:12:33;6.40;99.90
1948;DHT22;974;52.400;9.818;2023-03-29T02:14:59;6.40;99.90
1948;DHT22;974;52.400;9.818;2023-03-29T02:17:26;6.30;99.90
1948;DHT22;974;52.400;9.818;2023-03-29T02:20:00;6.40;99.90
1948;DHT22;974;52.400;9.818;2023-03-29T02:22:34;6.40;99.90
1948;DHT22;974;52.400;9.818;2023-03-29T02:25:03;6.40;99.90
1948;DHT22;974;52.400;9.818;2023-03-29T02:27:30;6.40;99.90
1948;DHT22;974;52.400;9.818;2023-03-29T02:29:56;6.40;99.90
1948;DHT22;974;52.400;9.818;2023-03-29T02:32:33;6.40;99.90
1948;DHT22;974;52.400;9.818;2023-03-29T02:35:06;6.40;99.90
1948;DHT22;974;52.400;9.818;2023-03-29T02:37:37;6.40;99.90
1948;DHT22;974;52.400;9.818;2023-03-29T02:40:06;6.40;99.90
1948;DHT22;974;52.400;9.818;2023-03-29T02:42:32;6.50;99.90
1948;DHT22;974;52.400;9.818;2023-03-29T02:44:59;6.50;99.90
1948;DHT22;974;52.400;9.818;2023-03-29T02:47:29;6.50;99.90
1948;DHT22;974;52.400;9.818;2023-03-29T02:49:58;6.40;99.90
1948;DHT22;974;52.400;9.818;2023-03-29T02:52:27;6.50;99.90
1948;DHT22;974;52.400;9.818;2023-03-29T02:54:58;6.50;99.90
1948;DHT22;974;52.400;9.818;2023-03-29T02:57:25;6.50;99.90
1948;DHT22;974;52.400;9.818;2023-03-29T02:59:52;6.40;99.90
1948;DHT22;974;52.400;9.818;2023-03-29T03:02:18;6.40;99.90
1948;DHT22;974;52.400;9.818;2023-03-29T03:04:44;6.40;99.90
1948;DHT22;974;52.400;9.818;2023-03-29T03:07:09;6.30;99.90
1948;DHT22;974;52.400;9.818;2023-03-29T03:09:35;6.30;99.90
1948;DHT22;974;52.400;9.818;2023-03-29T03:12:00;6.20;99.90
1948;DHT22;974;52.400;9.818;2023-03-29T03:14:26;6.30;99.90
1948;DHT22;974;52.400;9.818;2023-03-29T03:16:52;6.30;99.90
1948;DHT22;974;52.400;9.818;2023-03-29T03:19:19;6.30;99.90
1948;DHT22;974;52.400;9.818;2023-03-29T03:21:45;6.20;99.90
1948;DHT22;974;52.400;9.818;2023-03-29T03:24:11;6.20;99.90
1948;DHT22;974;52.400;9.818;2023-03-29T03:26:37;6.20;99.90
1948;DHT22;974;52.400;9.818;2023-03-29T03:29:03;6.20;99.90
1948;DHT22;974;52.400;9.818;2023-03-29T03:31:28;6.20;99.90
1948;DHT22;974;52.400;9.818;2023-03-29T03:33:54;6.20;99.90
1948;DHT22;974;52.400;9.818;2023-03-29T03:36:19;6.20;99.90
1948;DHT22;974;52.400;9.818;2023-03-29T03:38:50;6.20;99.90
1948;DHT22;974;52.400;9.818;2023-03-29T03:41:17;6.20;99.90
1948;DHT22;974;52.400;9.818;2023-03-29T03:43:42;6.20;99.90
1948;DHT22;974;52.400;9.818;2023-03-29T03:46:13;6.20;99.90
1948;DHT22;974;52.400;9.818;2023-03-29T03:48:38;6.20;99.90
1948;DHT22;974;52.400;9.818;2023-03-29T03:51:05;6.20;99.90
1948;DHT22;974;52.400;9.818;2023-03-29T03:53:30;6.20;99.90
1948;DHT22;974;52.400;9.818;2023-03-29T03:55:56;6.20;99.90
1948;DHT22;974;52.400;9.818;2023-03-29T03:58:22;6.10;99.90
1948;DHT22;974;52.400;9.818;2023-03-29T04:00:49;6.10;99.90
1948;DHT22;974;52.400;9.818;2023-03-29T04:03:15;6.10;99.90
1948;DHT22;974;52.400;9.818;2023-03-29T04:05:42;6.10;99.90
1948;DHT22;974;52.400;9.818;2023-03-29T04:08:09;6.10;99.90
1948;DHT22;974;52.400;9.818;2023-03-29T04:10:34;6.10;99.90
1948;DHT22;974;52.400;9.818;2023-03-29T04:13:01;6.10;99.90
1948;DHT22;974;52.400;9.818;2023-03-29T04:15:27;6.10;99.90
1948;DHT22;974;52.400;9.818;2023-03-29T04:17:54;6.10;99.90
1948;DHT22;974;52.400;9.818;2023-03-29T04:20:20;6.10;99.90
1948;DHT22;974;52.400;9.818;2023-03-29T04:22:47;6.10;99.90
1948;DHT22;974;52.400;9.818;2023-03-29T04:25:12;6.00;99.90
1948;DHT22;974;52.400;9.818;2023-03-29T04:27:38;6.10;99.90
1948;DHT22;974;52.400;9.818;2023-03-29T04:30:04;6.10;99.90
1948;DHT22;974;52.400;9.818;2023-03-29T04:32:31;6.10;99.90
1948;DHT22;974;52.400;9.818;2023-03-29T04:34:57;6.10;99.90
1948;DHT22;974;52.400;9.818;2023-03-29T04:37:23;6.10;99.90
1948;DHT22;974;52.400;9.818;2023-03-29T04:39:48;6.10;99.90
1948;DHT22;974;52.400;9.818;2023-03-29T04:42:15;6.10;99.90
1948;DHT22;974;52.400;9.818;2023-03-29T04:44:41;6.00;99.90
1948;DHT22;974;52.400;9.818;2023-03-29T04:47:08;6.00;99.90
1948;DHT22;974;52.400;9.818;2023-03-29T04:49:36;6.10;99.90
1948;DHT22;974;52.400;9.818;2023-03-29T04:52:01;6.10;99.90
1948;DHT22;974;52.400;9.818;2023-03-29T04:54:27;6.10;99.90
1948;DHT22;974;52.400;9.818;2023-03-29T04:56:52;6.10;99.90
1948;DHT22;974;52.400;9.818;2023-03-29T04:59:18;6.20;99.90
1948;DHT22;974;52.400;9.818;2023-03-29T05:01:43;6.10;99.90
1948;DHT22;974;52.400;9.818;2023-03-29T05:04:10;6.10;99.90
1948;DHT22;974;52.400;9.818;2023-03-29T05:06:36;6.10;99.90
1948;DHT22;974;52.400;9.818;2023-03-29T05:09:01;6.10;99.90
1948;DHT22;974;52.400;9.818;2023-03-29T05:11:29;6.10;99.90
1948;DHT22;974;52.400;9.818;2023-03-29T05:13:55;6.10;99.90
1948;DHT22;974;52.400;9.818;2023-03-29T05:16:24;6.10;99.90
1948;DHT22;974;52.400;9.818;2023-03-29T05:18:50;6.20;99.90
1948;DHT22;974;52.400;9.818;2023-03-29T05:21:16;6.20;99.90
1948;DHT22;974;52.400;9.818;2023-03-29T05:23:41;6.10;99.90
1948;DHT22;974;52.400;9.818;2023-03-29T05:26:07;6.10;99.90
1948;DHT22;974;52.400;9.818;2023-03-29T05:28:34;6.10;99.90
1948;DHT22;974;52.400;9.818;2023-03-29T05:31:01;6.10;99.90
1948;DHT22;974;52.400;9.818;2023-03-29T05:33:29;6.10;99.90
1948;DHT22;974;52.400;9.818;2023-03-29T05:36:06;6.10;99.90
1948;DHT22;974;52.400;9.818;2023-03-29T05:38:33;6.10;99.90
1948;DHT22;974;52.400;9.818;2023-03-29T05:40:59;6.20;99.90
1948;DHT22;974;52.400;9.818;2023-03-29T05:43:26;6.20;99.90
1948;DHT22;974;52.400;9.818;2023-03-29T05:45:52;6.20;99.90
1948;DHT22;974;52.400;9.818;2023-03-29T05:48:19;6.20;99.90
1948;DHT22;974;52.400;9.818;2023-03-29T05:50:46;6.20;99.90
1948;DHT22;974;52.400;9.818;2023-03-29T05:53:13;6.20;99.90
1948;DHT22;974;52.400;9.818;2023-03-29T05:55:39;6.20;99.90
1948;DHT22;974;52.400;9.818;2023-03-29T05:58:04;6.30;99.90
1948;DHT22;974;52.400;9.818;2023-03-29T06:00:30;6.20;99.90
1948;DHT22;974;52.400;9.818;2023-03-29T06:02:58;6.30;99.90
1948;DHT22;974;52.400;9.818;2023-03-29T06:05:23;6.30;99.90
1948;DHT22;974;52.400;9.818;2023-03-29T06:07:50;6.30;99.90
1948;DHT22;974;52.400;9.818;2023-03-29T06:10:16;6.30;99.90
1948;DHT22;974;52.400;9.818;2023-03-29T06:12:42;6.30;99.90
1948;DHT22;974;52.400;9.818;2023-03-29T06:15:08;6.30;99.90
1948;DHT22;974;52.400;9.818;2023-03-29T06:17:34;6.40;99.90
1948;DHT22;974;52.400;9.818;2023-03-29T06:20:00;6.40;99.90
1948;DHT22;974;52.400;9.818;2023-03-29T06:22:26;6.40;99.90
1948;DHT22;974;52.400;9.818;2023-03-29T06:24:52;6.30;99.90
1948;DHT22;974;52.400;9.818;2023-03-29T06:27:18;6.40;99.90
1948;DHT22;974;52.400;9.818;2023-03-29T06:29:44;6.40;99.90
1948;DHT22;974;52.400;9.818;2023-03-29T06:32:10;6.40;99.90
1948;DHT22;974;52.400;9.818;2023-03-29T06:34:36;6.50;99.90
1948;DHT22;974;52.400;9.818;2023-03-29T06:37:02;6.50;99.90
1948;DHT22;974;52.400;9.818;2023-03-29T06:39:28;6.60;99.90
1948;DHT22;974;52.400;9.818;2023-03-29T06:41:54;6.60;99.90
1948;DHT22;974;52.400;9.818;2023-03-29T06:44:20;6.60;99.90
1948;DHT22;974;52.400;9.818;2023-03-29T06:46:45;6.60;99.90
1948;DHT22;974;52.400;9.818;2023-03-29T06:49:11;6.70;99.90
1948;DHT22;974;52.400;9.818;2023-03-29T06:51:36;6.70;99.90
1948;DHT22;974;52.400;9.818;2023-03-29T06:54:02;6.70;99.90
1948;DHT22;974;52.400;9.818;2023-03-29T06:56:28;6.80;99.90
1948;DHT22;974;52.400;9.818;2023-03-29T06:58:54;6.90;99.90
1948;DHT22;974;52.400;9.818;2023-03-29T07:01:20;7.00;99.90
1948;DHT22;974;52.400;9.818;2023-03-29T07:03:45;7.00;99.90
1948;DHT22;974;52.400;9.818;2023-03-29T07:06:11;7.10;99.90
1948;DHT22;974;52.400;9.818;2023-03-29T07:08:38;7.10;99.90
1948;DHT22;974;52.400;9.818;2023-03-29T07:11:12;7.20;99.90
1948;DHT22;974;52.400;9.818;2023-03-29T07:13:39;7.30;99.90
1948;DHT22;974;52.400;9.818;2023-03-29T07:16:10;7.30;99.90
1948;DHT22;974;52.400;9.818;2023-03-29T07:18:38;7.30;99.90
1948;DHT22;974;52.400;9.818;2023-03-29T07:21:04;7.30;99.90
1948;DHT22;974;52.400;9.818;2023-03-29T07:23:30;7.40;99.90
1948;DHT22;974;52.400;9.818;2023-03-29T07:25:55;7.40;99.90
1948;DHT22;974;52.400;9.818;2023-03-29T07:28:21;7.20;99.90
1948;DHT22;974;52.400;9.818;2023-03-29T07:30:47;7.30;99.90
1948;DHT22;974;52.400;9.818;2023-03-29T07:33:14;7.30;99.90
1948;DHT22;974;52.400;9.818;2023-03-29T07:35:39;7.40;99.90
1948;DHT22;974;52.400;9.818;2023-03-29T07:38:07;7.40;99.90
1948;DHT22;974;52.400;9.818;2023-03-29T07:40:33;7.50;99.90
1948;DHT22;974;52.400;9.818;2023-03-29T07:43:00;7.50;99.90
1948;DHT22;974;52.400;9.818;2023-03-29T07:45:27;7.60;99.90
1948;DHT22;974;52.400;9.818;2023-03-29T07:47:54;7.60;99.90
1948;DHT22;974;52.400;9.818;2023-03-29T07:50:20;7.60;99.90
1948;DHT22;974;52.400;9.818;2023-03-29T07:52:46;7.70;99.90
1948;DHT22;974;52.400;9.818;2023-03-29T07:55:13;7.70;99.90
1948;DHT22;974;52.400;9.818;2023-03-29T07:57:39;7.70;99.90
1948;DHT22;974;52.400;9.818;2023-03-29T08:00:06;7.70;99.90
1948;DHT22;974;52.400;9.818;2023-03-29T08:02:46;7.80;99.90
1948;DHT22;974;52.400;9.818;2023-03-29T08:05:13;7.80;99.90
1948;DHT22;974;52.400;9.818;2023-03-29T08:07:43;7.90;99.90
1948;DHT22;974;52.400;9.818;2023-03-29T08:10:17;7.90;99.90
1948;DHT22;974;52.400;9.818;2023-03-29T08:12:44;8.00;99.90
1948;DHT22;974;52.400;9.818;2023-03-29T08:15:10;8.00;99.90
1948;DHT22;974;52.400;9.818;2023-03-29T08:17:37;8.10;99.90
1948;DHT22;974;52.400;9.818;2023-03-29T08:20:04;8.10;99.90
1948;DHT22;974;52.400;9.818;2023-03-29T08:22:33;8.20;99.90
1948;DHT22;974;52.400;9.818;2023-03-29T08:24:58;8.20;99.90
1948;DHT22;974;52.400;9.818;2023-03-29T08:27:24;8.30;99.90
1948;DHT22;974;52.400;9.818;2023-03-29T08:29:50;8.30;99.90
1948;DHT22;974;52.400;9.818;2023-03-29T08:32:16;8.40;99.90
1948;DHT22;974;52.400;9.818;2023-03-29T08:34:41;8.50;99.90
1948;DHT22;974;52.400;9.818;2023-03-29T08:37:07;8.60;99.90
1948;DHT22;974;52.400;9.818;2023-03-29T08:39:34;8.70;99.90
1948;DHT22;974;52.400;9.818;2023-03-29T08:42:05;8.70;99.90
1948;DHT22;974;52.400;9.818;2023-03-29T08:47:50;8.80;99.90
1948;DHT22;974;52.400;9.818;2023-03-29T08:50:19;8.90;99.90
1948;DHT22;974;52.400;9.818;2023-03-29T08:52:49;8.90;99.90
1948;DHT22;974;52.400;9.818;2023-03-29T08:55:36;8.90;99.90
1948;DHT22;974;52.400;9.818;2023-03-29T08:58:05;8.90;99.90
1948;DHT22;974;52.400;9.818;2023-03-29T09:00:53;8.90;99.90
1948;DHT22;974;52.400;9.818;2023-03-29T09:03:29;8.90;99.90
1948;DHT22;974;52.400;9.818;2023-03-29T09:08:28;8.90;99.90
1948;DHT22;974;52.400;9.818;2023-03-29T09:11:06;9.00;99.90
1948;DHT22;974;52.400;9.818;2023-03-29T09:13:37;9.00;99.90
1948;DHT22;974;52.400;9.818;2023-03-29T09:19:02;9.10;99.90
1948;DHT22;974;52.400;9.818;2023-03-29T09:21:40;9.10;99.90
1948;DHT22;974;52.400;9.818;2023-03-29T09:24:57;9.00;99.90
1948;DHT22;974;52.400;9.818;2023-03-29T09:27:28;8.90;99.90
1948;DHT22;974;52.400;9.818;2023-03-29T09:33:03;8.90;99.90
1948;DHT22;974;52.400;9.818;2023-03-29T09:35:35;8.90;99.90
1948;DHT22;974;52.400;9.818;2023-03-29T09:38:02;8.90;99.90
1948;DHT22;974;52.400;9.818;2023-03-29T09:40:36;9.00;99.90
1948;DHT22;974;52.400;9.818;2023-03-29T09:43:08;9.00;99.90
1948;DHT22;974;52.400;9.818;2023-03-29T09:45:37;9.10;99.90
1948;DHT22;974;52.400;9.818;2023-03-29T09:48:13;9.10;99.90
1948;DHT22;974;52.400;9.818;2023-03-29T09:50:44;9.10;99.90
1948;DHT22;974;52.400;9.818;2023-03-29T09:53:16;9.10;99.90
1948;DHT22;974;52.400;9.818;2023-03-29T09:55:44;9.10;99.90
1948;DHT22;974;52.400;9.818;2023-03-29T09:58:27;9.20;99.90
1948;DHT22;974;52.400;9.818;2023-03-29T10:01:00;9.30;99.90
1948;DHT22;974;52.400;9.818;2023-03-29T10:03:28;9.40;99.90
1948;DHT22;974;52.400;9.818;2023-03-29T10:05:56;9.40;99.90
1948;DHT22;974;52.400;9.818;2023-03-29T10:08:26;9.60;99.90
1948;DHT22;974;52.400;9.818;2023-03-29T10:10:55;9.80;99.90
1948;DHT22;974;52.400;9.818;2023-03-29T10:13:29;9.80;99.90
1948;DHT22;974;52.400;9.818;2023-03-29T10:16:00;9.50;99.90
1948;DHT22;974;52.400;9.818;2023-03-29T10:18:29;9.70;99.90
1948;DHT22;974;52.400;9.818;2023-03-29T10:21:02;9.70;99.90
1948;DHT22;974;52.400;9.818;2023-03-29T10:23:35;9.80;99.90
1948;DHT22;974;52.400;9.818;2023-03-29T10:26:06;9.70;99.90
1948;DHT22;974;52.400;9.818;2023-03-29T10:28:35;9.90;99.90
1948;DHT22;974;52.400;9.818;2023-03-29T10:31:01;9.90;99.90
1948;DHT22;974;52.400;9.818;2023-03-29T10:33:32;9.90;99.90
1948;DHT22;974;52.400;9.818;2023-03-29T10:35:59;9.70;99.90
1948;DHT22;974;52.400;9.818;2023-03-29T10:38:28;9.70;99.90
1948;DHT22;974;52.400;9.818;2023-03-29T10:41:02;9.80;99.90
1948;DHT22;974;52.400;9.818;2023-03-29T10:43:37;9.90;99.90
1948;DHT22;974;52.400;9.818;2023-03-29T10:46:16;10.10;99.90
1948;DHT22;974;52.400;9.818;2023-03-29T10:48:54;10.20;99.90
1948;DHT22;974;52.400;9.818;2023-03-29T10:51:20;10.20;99.90
1948;DHT22;974;52.400;9.818;2023-03-29T10:53:47;10.20;99.90
1948;DHT22;974;52.400;9.818;2023-03-29T10:56:25;10.50;99.90
1948;DHT22;974;52.400;9.818;2023-03-29T10:59:13;10.50;99.90
1948;DHT22;974;52.400;9.818;2023-03-29T11:07:52;10.80;99.90
1948;DHT22;974;52.400;9.818;2023-03-29T11:13:05;11.00;99.90
1948;DHT22;974;52.400;9.818;2023-03-29T11:16:09;11.40;99.90
1948;DHT22;974;52.400;9.818;2023-03-29T11:19:00;11.50;99.90
1948;DHT22;974;52.400;9.818;2023-03-29T11:27:43;12.60;99.90
1948;DHT22;974;52.400;9.818;2023-03-29T11:35:51;13.30;99.90
1948;DHT22;974;52.400;9.818;2023-03-29T11:41:02;13.10;99.90
1948;DHT22;974;52.400;9.818;2023-03-29T11:43:53;13.10;99.90
1948;DHT22;974;52.400;9.818;2023-03-29T11:46:30;12.90;99.90
1948;DHT22;974;52.400;9.818;2023-03-29T11:49:22;12.90;99.90
1948;DHT22;974;52.400;9.818;2023-03-29T11:52:05;12.90;99.90
1948;DHT22;974;52.400;9.818;2023-03-29T11:54:42;12.60;99.90
1948;DHT22;974;52.400;9.818;2023-03-29T11:57:17;13.00;99.90
1948;DHT22;974;52.400;9.818;2023-03-29T12:05:30;14.00;99.90
1948;DHT22;974;52.400;9.818;2023-03-29T12:10:26;17.60;99.90
1948;DHT22;974;52.400;9.818;2023-03-29T12:13:00;22.60;99.90
1948;DHT22;974;52.400;9.818;2023-03-29T12:15:29;21.90;99.90
1948;DHT22;974;52.400;9.818;2023-03-29T12:18:20;19.80;99.90
1948;DHT22;974;52.400;9.818;2023-03-29T12:21:01;18.60;99.90
1948;DHT22;974;52.400;9.818;2023-03-29T12:23:31;18.40;99.90
1948;DHT22;974;52.400;9.818;2023-03-29T12:34:28;17.40;99.90
1948;DHT22;974;52.400;9.818;2023-03-29T12:37:26;16.80;99.90
1948;DHT22;974;52.400;9.818;2023-03-29T12:40:11;19.20;99.90
1948;DHT22;974;52.400;9.818;2023-03-29T12:42:45;18.60;99.90
1948;DHT22;974;52.400;9.818;2023-03-29T12:45:17;18.20;99.90
1948;DHT22;974;52.400;9.818;2023-03-29T12:47:44;19.10;99.90
1948;DHT22;974;52.400;9.818;2023-03-29T12:53:23;18.20;99.90
1948;DHT22;974;52.400;9.818;2023-03-29T12:58:50;16.20;99.90
1948;DHT22;974;52.400;9.818;2023-03-29T13:01:37;15.30;99.90
1948;DHT22;974;52.400;9.818;2023-03-29T13:11:54;13.60;99.90
1948;DHT22;974;52.400;9.818;2023-03-29T13:14:23;13.50;99.90
1948;DHT22;974;52.400;9.818;2023-03-29T13:16:49;13.40;99.90
1948;DHT22;974;52.400;9.818;2023-03-29T13:25:08;13.00;99.90
1948;DHT22;974;52.400;9.818;2023-03-29T13:30:19;12.20;99.90
1948;DHT22;974;52.400;9.818;2023-03-29T13:32:55;11.90;99.90
1948;DHT22;974;52.400;9.818;2023-03-29T13:35:50;12.00;99.90
1948;DHT22;974;52.400;9.818;2023-03-29T13:38:23;12.00;99.90
1948;DHT22;974;52.400;9.818;2023-03-29T13:41:04;11.90;99.90
1948;DHT22;974;52.400;9.818;2023-03-29T13:43:34;11.70;99.90
1948;DHT22;974;52.400;9.818;2023-03-29T13:48:45;11.70;99.90
1948;DHT22;974;52.400;9.818;2023-03-29T13:53:44;11.80;99.90
1948;DHT22;974;52.400;9.818;2023-03-29T13:56:27;11.80;99.90
1948;DHT22;974;52.400;9.818;2023-03-29T13:59:09;11.80;99.90
1948;DHT22;974;52.400;9.818;2023-03-29T14:01:40;11.90;99.90
1948;DHT22;974;52.400;9.818;2023-03-29T14:04:13;11.80;99.90
1948;DHT22;974;52.400;9.818;2023-03-29T14:06:43;11.80;99.90
1948;DHT22;974;52.400;9.818;2023-03-29T14:09:13;11.90;99.90
1948;DHT22;974;52.400;9.818;2023-03-29T14:11:44;11.90;99.90
1948;DHT22;974;52.400;9.818;2023-03-29T14:14:10;11.90;99.90
1948;DHT22;974;52.400;9.818;2023-03-29T14:16:38;11.90;99.90
1948;DHT22;974;52.400;9.818;2023-03-29T14:19:16;11.80;99.90
1948;DHT22;974;52.400;9.818;2023-03-29T14:21:43;11.90;99.90
1948;DHT22;974;52.400;9.818;2023-03-29T14:24:24;11.90;99.90
1948;DHT22;974;52.400;9.818;2023-03-29T14:26:52;12.00;99.90
1948;DHT22;974;52.400;9.818;2023-03-29T14:29:18;12.20;99.90
1948;DHT22;974;52.400;9.818;2023-03-29T14:31:43;12.30;99.90
1948;DHT22;974;52.400;9.818;2023-03-29T14:34:12;12.40;99.90
1948;DHT22;974;52.400;9.818;2023-03-29T14:36:39;12.30;99.90
1948;DHT22;974;52.400;9.818;2023-03-29T14:39:15;12.30;99.90
1948;DHT22;974;52.400;9.818;2023-03-29T14:41:53;12.20;99.90
1948;DHT22;974;52.400;9.818;2023-03-29T14:44:20;12.20;99.90
1948;DHT22;974;52.400;9.818;2023-03-29T14:46:46;12.20;99.90
1948;DHT22;974;52.400;9.818;2023-03-29T14:49:15;12.00;99.90
1948;DHT22;974;52.400;9.818;2023-03-29T14:51:43;12.00;99.90
1948;DHT22;974;52.400;9.818;2023-03-29T14:54:19;11.90;99.90
1948;DHT22;974;52.400;9.818;2023-03-29T14:56:47;12.10;99.90
1948;DHT22;974;52.400;9.818;2023-03-29T15:01:51;12.10;99.90
1948;DHT22;974;52.400;9.818;2023-03-29T15:04:17;12.00;99.90
1948;DHT22;974;52.400;9.818;2023-03-29T15:06:43;12.00;99.90
1948;DHT22;974;52.400;9.818;2023-03-29T15:09:17;12.10;99.90
1948;DHT22;974;52.400;9.818;2023-03-29T15:11:50;12.10;99.90
1948;DHT22;974;52.400;9.818;2023-03-29T15:14:18;11.90;99.90
1948;DHT22;974;52.400;9.818;2023-03-29T15:16:44;11.90;99.90
1948;DHT22;974;52.400;9.818;2023-03-29T15:19:17;11.90;99.90
1948;DHT22;974;52.400;9.818;2023-03-29T15:21:44;11.80;99.90
1948;DHT22;974;52.400;9.818;2023-03-29T15:24:27;11.80;99.90
1948;DHT22;974;52.400;9.818;2023-03-29T15:27:11;11.80;99.90
1948;DHT22;974;52.400;9.818;2023-03-29T15:29:39;11.70;99.90
1948;DHT22;974;52.400;9.818;2023-03-29T15:32:18;11.70;99.90
1948;DHT22;974;52.400;9.818;2023-03-29T15:34:44;11.80;99.90
1948;DHT22;974;52.400;9.818;2023-03-29T15:37:10;11.80;99.90
1948;DHT22;974;52.400;9.818;2023-03-29T15:39:40;11.80;99.90
1948;DHT22;974;52.400;9.818;2023-03-29T15:42:07;11.70;99.90
1948;DHT22;974;52.400;9.818;2023-03-29T15:44:33;11.70;99.90
1948;DHT22;974;52.400;9.818;2023-03-29T15:47:02;11.80;99.90
1948;DHT22;974;52.400;9.818;2023-03-29T15:49:28;11.80;99.90
1948;DHT22;974;52.400;9.818;2023-03-29T15:51:53;11.70;99.90
1948;DHT22;974;52.400;9.818;2023-03-29T15:54:22;11.80;99.90
1948;DHT22;974;52.400;9.818;2023-03-29T15:56:55;11.70;99.90
1948;DHT22;974;52.400;9.818;2023-03-29T15:59:21;11.70;99.90
1948;DHT22;974;52.400;9.818;2023-03-29T16:01:47;11.70;99.90
1948;DHT22;974;52.400;9.818;2023-03-29T16:04:15;11.70;99.90
1948;DHT22;974;52.400;9.818;2023-03-29T16:06:43;11.70;99.90
1948;DHT22;974;52.400;9.818;2023-03-29T16:09:08;11.60;99.90
1948;DHT22;974;52.400;9.818;2023-03-29T16:11:36;11.60;99.90
1948;DHT22;974;52.400;9.818;2023-03-29T16:14:19;11.50;99.90
1948;DHT22;974;52.400;9.818;2023-03-29T16:16:45;11.60;99.90
1948;DHT22;974;52.400;9.818;2023-03-29T16:19:11;11.50;99.90
1948;DHT22;974;52.400;9.818;2023-03-29T16:21:36;11.50;99.90
1948;DHT22;974;52.400;9.818;2023-03-29T16:24:02;11.50;99.90
1948;DHT22;974;52.400;9.818;2023-03-29T16:26:28;11.50;99.90
1948;DHT22;974;52.400;9.818;2023-03-29T16:28:55;11.40;99.90
1948;DHT22;974;52.400;9.818;2023-03-29T16:31:20;11.40;99.90
1948;DHT22;974;52.400;9.818;2023-03-29T16:33:48;11.40;99.90
1948;DHT22;974;52.400;9.818;2023-03-29T16:36:13;11.40;99.90
1948;DHT22;974;52.400;9.818;2023-03-29T16:38:39;11.40;99.90
1948;DHT22;974;52.400;9.818;2023-03-29T16:41:05;11.40;99.90
1948;DHT22;974;52.400;9.818;2023-03-29T16:43:31;11.40;99.90
1948;DHT22;974;52.400;9.818;2023-03-29T16:45:56;11.40;99.90
1948;DHT22;974;52.400;9.818;2023-03-29T16:48:22;11.30;99.90
1948;DHT22;974;52.400;9.818;2023-03-29T16:50:48;11.30;99.90
1948;DHT22;974;52.400;9.818;2023-03-29T16:53:17;11.30;99.90
1948;DHT22;974;52.400;9.818;2023-03-29T16:55:44;11.30;99.90
1948;DHT22;974;52.400;9.818;2023-03-29T16:58:10;11.30;99.90
1948;DHT22;974;52.400;9.818;2023-03-29T17:00:35;11.30;99.90
1948;DHT22;974;52.400;9.818;2023-03-29T17:03:03;11.20;99.90
1948;DHT22;974;52.400;9.818;2023-03-29T17:05:28;11.20;99.90
1948;DHT22;974;52.400;9.818;2023-03-29T17:07:54;11.20;99.90
1948;DHT22;974;52.400;9.818;2023-03-29T17:10:20;11.20;99.90
1948;DHT22;974;52.400;9.818;2023-03-29T17:12:46;11.20;99.90
1948;DHT22;974;52.400;9.818;2023-03-29T17:15:11;11.20;99.90
1948;DHT22;974;52.400;9.818;2023-03-29T17:17:37;11.20;99.90
1948;DHT22;974;52.400;9.818;2023-03-29T17:20:04;11.20;99.90
1948;DHT22;974;52.400;9.818;2023-03-29T17:22:33;11.20;99.90
1948;DHT22;974;52.400;9.818;2023-03-29T17:24:58;11.20;99.90
1948;DHT22;974;52.400;9.818;2023-03-29T17:27:24;11.20;99.90
1948;DHT22;974;52.400;9.818;2023-03-29T17:29:49;11.10;99.90
1948;DHT22;974;52.400;9.818;2023-03-29T17:32:15;11.10;99.90
1948;DHT22;974;52.400;9.818;2023-03-29T17:34:40;11.10;99.90
1948;DHT22;974;52.400;9.818;2023-03-29T17:37:06;11.00;99.90
1948;DHT22;974;52.400;9.818;2023-03-29T17:39:31;11.10;99.90
1948;DHT22;974;52.400;9.818;2023-03-29T17:42:01;11.00;99.90
1948;DHT22;974;52.400;9.818;2023-03-29T17:44:27;11.00;99.90
1948;DHT22;974;52.400;9.818;2023-03-29T17:46:52;11.00;99.90
1948;DHT22;974;52.400;9.818;2023-03-29T17:49:18;11.00;99.90
1948;DHT22;974;52.400;9.818;2023-03-29T17:51:43;11.00;99.90
1948;DHT22;974;52.400;9.818;2023-03-29T17:54:09;11.00;99.90
1948;DHT22;974;52.400;9.818;2023-03-29T17:56:34;11.00;99.90
1948;DHT22;974;52.400;9.818;2023-03-29T17:59:00;10.90;99.90
1948;DHT22;974;52.400;9.818;2023-03-29T18:01:26;10.90;99.90
1948;DHT22;974;52.400;9.818;2023-03-29T18:03:51;10.90;99.90
1948;DHT22;974;52.400;9.818;2023-03-29T18:06:17;10.90;99.90
1948;DHT22;974;52.400;9.818;2023-03-29T18:08:44;10.90;99.90
1948;DHT22;974;52.400;9.818;2023-03-29T18:11:16;10.90;99.90